createdAt,value
2022-10-07T00:04:32.435Z,7.02
2022-10-07T00:10:42.285Z,7.06
2022-10-07T00:16:44.213Z,7.03
2022-10-07T00:22:46.115Z,7.08
2022-10-07T00:28:48.503Z,7.07
2022-10-07T00:34:50.544Z,7.04
2022-10-07T00:40:52.700Z,6.95
2022-10-07T00:46:55.682Z,6.86
2022-10-07T00:53:01.993Z,6.61
2022-10-07T00:59:15.557Z,6.70
2022-10-07T01:05:17.766Z,6.53
2022-10-07T01:11:56.625Z,6.43
2022-10-07T01:18:24.937Z,6.37
2022-10-07T01:25:32.169Z,6.28
2022-10-07T01:31:58.112Z,6.15
2022-10-07T01:38:08.369Z,6.07
2022-10-07T01:44:13.459Z,6.15
2022-10-07T01:57:28.454Z,6.09
2022-10-07T02:04:28.030Z,5.93
2022-10-07T02:10:43.550Z,5.94
2022-10-07T02:16:54.523Z,5.96
2022-10-07T02:23:05.252Z,5.93
2022-10-07T02:29:10.713Z,5.91
2022-10-07T02:35:27.915Z,5.94
2022-10-07T02:41:51.372Z,5.98
2022-10-07T02:48:04.140Z,5.88
2022-10-07T02:54:13.578Z,5.83
2022-10-07T03:00:17.625Z,5.60
2022-10-07T03:06:19.692Z,5.63
2022-10-07T03:12:22.125Z,5.67
2022-10-07T03:18:28.504Z,5.59
2022-10-07T03:24:31.152Z,5.70
2022-10-07T03:30:33.259Z,5.61
2022-10-07T03:43:02.440Z,5.48
2022-10-07T03:56:17.032Z,6.02
2022-10-07T04:02:20.602Z,5.87
2022-10-07T04:08:22.501Z,6.07
2022-10-07T04:14:24.365Z,5.92
2022-10-07T04:20:26.429Z,5.65
2022-10-07T04:26:28.401Z,5.74
2022-10-07T04:32:31.568Z,5.70
2022-10-07T04:38:33.594Z,5.79
2022-10-07T04:44:35.638Z,5.79
2022-10-07T04:50:40.597Z,5.88
2022-10-07T04:56:43.580Z,6.04
2022-10-07T05:02:50.299Z,6.46
2022-10-07T05:08:54.258Z,6.23
2022-10-07T05:14:56.201Z,5.97
2022-10-07T05:20:58.163Z,5.83
2022-10-07T05:27:00.040Z,5.67
2022-10-07T05:33:02.813Z,5.08
2022-10-07T05:39:05.427Z,4.95
2022-10-07T05:45:08.231Z,4.94
2022-10-07T05:51:10.253Z,5.00
2022-10-07T05:57:12.147Z,4.91
2022-10-07T06:03:14.135Z,4.91
2022-10-07T06:09:34.559Z,5.05
2022-10-07T06:15:37.158Z,5.13
2022-10-07T06:21:39.065Z,5.29
2022-10-07T06:27:40.962Z,5.35
2022-10-07T06:33:43.482Z,5.45
2022-10-07T06:39:45.385Z,5.51
2022-10-07T06:45:58.440Z,5.41
2022-10-07T06:52:00.386Z,5.59
2022-10-07T06:58:06.286Z,5.66
2022-10-07T07:04:11.072Z,5.66
2022-10-07T07:10:13.013Z,5.96
2022-10-07T07:16:14.938Z,6.02
2022-10-07T07:22:16.856Z,6.24
2022-10-07T07:28:18.836Z,6.68
2022-10-07T07:34:29.501Z,6.62
2022-10-07T07:40:31.568Z,6.81
2022-10-07T07:46:43.611Z,6.98
2022-10-07T07:52:45.499Z,7.40
2022-10-07T07:58:47.611Z,7.80
2022-10-07T08:04:49.950Z,8.32
2022-10-07T08:10:52.108Z,8.50
2022-10-07T08:16:56.294Z,8.73
2022-10-07T08:22:59.799Z,9.01
2022-10-07T08:29:02.159Z,9.13
2022-10-07T08:35:04.623Z,9.31
2022-10-07T08:41:09.918Z,9.57
2022-10-07T08:47:17.450Z,9.73
2022-10-07T08:53:30.383Z,9.99
2022-10-07T08:59:35.218Z,10.22
2022-10-07T09:05:44.288Z,10.52
2022-10-07T09:11:48.626Z,10.68
2022-10-07T09:18:18.849Z,10.98
2022-10-07T09:24:28.978Z,11.97
2022-10-07T09:30:32.462Z,13.29
2022-10-07T09:36:58.690Z,14.36
2022-10-07T09:43:02.627Z,19.57
2022-10-07T09:49:05.463Z,23.31
2022-10-07T09:55:37.269Z,25.55
2022-10-07T10:01:41.744Z,25.39
2022-10-07T10:07:47.942Z,22.12
2022-10-07T10:13:52.359Z,19.26
2022-10-07T10:19:55.860Z,17.90
2022-10-07T10:26:32.773Z,16.86
2022-10-07T10:32:57.555Z,16.65
2022-10-07T10:39:30.029Z,18.71
2022-10-07T10:45:46.903Z,21.98
2022-10-07T10:52:11.049Z,24.41
2022-10-07T10:58:26.431Z,24.25
2022-10-07T11:04:34.011Z,26.05
2022-10-07T11:10:59.559Z,24.41
2022-10-07T11:17:06.793Z,25.51
2022-10-07T11:23:41.591Z,25.67
2022-10-07T11:30:02.945Z,26.84
2022-10-07T11:36:22.038Z,29.13
2022-10-07T11:42:28.541Z,27.28
2022-10-07T11:49:13.646Z,25.40
2022-10-07T11:55:49.428Z,24.10
2022-10-07T12:01:55.142Z,26.90
2022-10-07T12:08:00.865Z,27.83
2022-10-07T12:14:40.891Z,26.81
2022-10-07T12:20:52.781Z,28.20
2022-10-07T12:27:16.284Z,29.72
2022-10-07T12:33:45.196Z,30.83
2022-10-07T12:39:52.549Z,31.10
2022-10-07T12:45:55.960Z,30.58
2022-10-07T12:52:13.256Z,29.84
2022-10-07T12:59:02.859Z,29.78
2022-10-07T13:05:54.214Z,29.71
2022-10-07T13:12:12.832Z,27.74
2022-10-07T13:19:20.415Z,28.43
2022-10-07T13:25:22.694Z,28.37
2022-10-07T13:31:28.842Z,28.58
2022-10-07T13:37:39.700Z,30.43
2022-10-07T13:43:44.478Z,29.75
2022-10-07T13:49:53.978Z,28.86
2022-10-07T13:56:06.504Z,29.62
2022-10-07T14:08:49.622Z,31.15
2022-10-07T14:15:01.940Z,31.00
2022-10-07T14:21:17.073Z,30.55
2022-10-07T14:27:40.303Z,29.23
2022-10-07T14:34:13.155Z,29.36
2022-10-07T14:40:24.563Z,30.14
2022-10-07T14:54:13.743Z,31.14
2022-10-07T15:00:25.054Z,31.24
2022-10-07T15:06:32.111Z,30.56
2022-10-07T15:12:35.677Z,30.77
2022-10-07T15:18:42.364Z,29.33
2022-10-07T15:25:10.425Z,26.59
2022-10-07T15:31:12.314Z,26.63
2022-10-07T15:37:49.424Z,28.02
2022-10-07T15:43:51.611Z,27.66
2022-10-07T15:49:53.746Z,26.50
2022-10-07T16:02:15.924Z,24.92
2022-10-07T16:08:17.873Z,23.61
2022-10-07T16:14:19.794Z,22.17
2022-10-07T16:20:21.696Z,19.47
2022-10-07T16:26:27.044Z,17.45
2022-10-07T16:32:28.927Z,16.63
2022-10-07T16:38:31.861Z,15.64
2022-10-07T16:44:33.766Z,15.11
2022-10-07T16:50:35.827Z,14.46
2022-10-07T16:56:37.741Z,14.03
2022-10-07T17:02:39.646Z,13.67
2022-10-07T17:08:47.456Z,13.51
2022-10-07T17:14:50.144Z,13.18
2022-10-07T17:20:55.540Z,13.16
2022-10-07T17:26:57.529Z,13.17
2022-10-07T17:33:00.603Z,13.05
2022-10-07T17:39:03.800Z,12.96
2022-10-07T17:45:06.784Z,12.93
2022-10-07T17:51:09.336Z,12.91
2022-10-07T17:57:11.223Z,12.77
2022-10-07T18:03:13.140Z,12.95
2022-10-07T18:09:18.610Z,12.76
2022-10-07T18:15:20.538Z,12.90
2022-10-07T18:21:23.947Z,12.75
2022-10-07T18:27:27.208Z,12.73
2022-10-07T18:33:33.333Z,12.78
2022-10-07T18:39:35.289Z,12.88
2022-10-07T18:45:37.257Z,12.70
2022-10-07T18:51:39.908Z,12.69
2022-10-07T18:57:45.304Z,12.47
2022-10-07T19:03:48.997Z,12.15
2022-10-07T19:09:50.897Z,12.14
2022-10-07T19:15:52.922Z,12.11
2022-10-07T19:21:55.760Z,12.17
2022-10-07T19:27:57.724Z,12.10
2022-10-07T19:34:08.719Z,12.08
2022-10-07T19:40:11.298Z,12.14
2022-10-07T19:46:14.296Z,12.07
2022-10-07T19:52:16.959Z,11.92
2022-10-07T19:58:18.913Z,11.97
2022-10-07T20:04:21.165Z,11.74
2022-10-07T20:10:24.481Z,11.79
2022-10-07T20:16:27.540Z,11.52
2022-10-07T20:22:29.481Z,11.53
2022-10-07T20:28:31.498Z,11.52
2022-10-07T20:34:33.464Z,11.40
2022-10-07T20:40:54.257Z,11.53
2022-10-07T20:46:57.355Z,11.47
2022-10-07T20:52:59.268Z,11.51
2022-10-07T21:05:18.086Z,11.58
2022-10-07T21:11:19.999Z,11.39
2022-10-07T21:17:22.883Z,11.36
2022-10-07T21:23:25.957Z,11.21
2022-10-07T21:29:29.842Z,10.94
2022-10-07T21:35:32.978Z,11.00
2022-10-07T21:41:38.779Z,10.98
2022-10-07T21:47:40.813Z,10.86
2022-10-07T21:53:42.793Z,10.75
2022-10-07T21:59:44.703Z,10.63
2022-10-07T22:05:46.685Z,10.43
2022-10-07T22:11:49.307Z,10.51
2022-10-07T22:17:51.205Z,10.32
2022-10-07T22:23:59.210Z,10.04
2022-10-07T22:30:01.115Z,9.79
2022-10-07T22:36:04.642Z,9.78
2022-10-07T22:42:06.500Z,9.75
2022-10-07T22:48:08.820Z,9.60
2022-10-07T22:54:12.941Z,9.50
2022-10-07T23:00:15.872Z,9.44
2022-10-07T23:06:19.771Z,9.49
2022-10-07T23:12:21.721Z,9.49
2022-10-07T23:18:23.725Z,9.65
2022-10-07T23:24:28.210Z,9.71
2022-10-07T23:30:31.131Z,9.75
2022-10-07T23:36:35.264Z,9.62
2022-10-07T23:42:37.106Z,9.76
2022-10-07T23:48:40.238Z,9.53
2022-10-07T23:54:42.613Z,9.49
